VOCB/CJB METAR and TAF weather

Enter ICAO airport designator
Station Type Date Time Source
VOCB METAR 2020/04/02 04:00 UTC NOAA

VOCB 020400Z VRB03KT 6000 NSC 30/22 Q1014 NOSIG


Station Type Date Time Source
VOCB Decoded METAR 2020/04/02 04:00 UTC NOAA

Coimbatore / Peelamedu, India (VOCB) 11-02N 077-03E 399M
Apr 02, 2020 - 12:00 AM EDT / 2020.04.02 0400 UTC
Wind: Variable at 3 MPH (3 KT):0
Visibility: 3 mile(s):0
Temperature: 86 F (30 C)
Heat index: 91.8 F (33.2 C):1
Dew Point: 71 F (22 C)
Relative Humidity: 62%
Pressure (altimeter): 29.94 in. Hg (1014 hPa)
ob: VOCB 020400Z VRB03KT 6000 NSC 30/22 Q1014 NOSIG
cycle: 4

Station Type Date Time Source
VOCB TAF 2020/04/01 18:00 UTC NOAA

TAF VOCB 011700Z 0118/0224 VRB02KT 6000 FEW015
BECMG 0200/0201 03005KT 4000 BR
BECMG 0206/0207 6000
BECMG 0208/0209 09010KT
BECMG 0218/0219 VRB02KT

Example: see airport list